Pagrindinis puslapis
METAR-TAF:

METAR-TAF

Oro uostai :

Georgetown Municipal Airport

Georgetown, Teksasas, Jungtinės Amerikos Valstijos

platuma: 30-41N, ilguma: 097-41W, Aukštis: 240 m

Dabartinis oras

Ataskaita buvo paskelbta 57 minutes, ne 01:56 UTC
Vėjas 9 kt iš Pietų/Pietryčių su gūsio iki 16 kt
Temperatūra 31°C
Drėgmė 66%
Slėgis 1014 hPa
Matomumas: 16.1 km
Su prošvaistėmis ne aukštis 3700 ft
Su prošvaistėmis ne aukštis 4500 ft

METAR: KGTU 250156Z 15009G16KT 10SM BKN037 BKN045 31/24 A2993 RMK AO2 SLP127 T03110239

Laikas: 21:53 (02:53 UTC)


TAF: trūkstamas

Orai ataskaitas ir orų prognozės (METAR, TAF).

turimą stotys yra geltonos ir raudonos taškus žemėlapyje.

Perkelti pele per norėdami pamatyti stoties vardą.

Tada spustelėkite, norėdami matyti oro stebėjimo ir prognozės.

Norėdami pakeisti žemėlapį: spustelėkite ant žalios mygtukų su juodo kryžiaus žemyn,; žalią mygtuką su brūkšneliu, jei norite nutolinti; arba žalių rodyklių gretimoms žemėlapius.


METAR-TAF: